createdAt,value
2017-08-10T00:01:56.570Z,15.90
2017-08-10T00:04:25.319Z,24.23
2017-08-10T00:06:53.682Z,16.23
2017-08-10T00:09:22.812Z,19.90
2017-08-10T00:11:51.452Z,21.50
2017-08-10T00:14:19.816Z,21.53
2017-08-10T00:16:48.216Z,18.53
2017-08-10T00:19:18.062Z,28.50
2017-08-10T00:21:46.424Z,19.03
2017-08-10T00:24:14.795Z,19.17
2017-08-10T00:26:43.443Z,25.63
2017-08-10T00:29:11.784Z,16.30
2017-08-10T00:31:40.133Z,17.73
2017-08-10T00:34:09.770Z,19.57
2017-08-10T00:36:38.123Z,16.70
2017-08-10T00:39:07.246Z,16.77
2017-08-10T00:41:35.981Z,21.50
2017-08-10T00:44:04.346Z,17.00
2017-08-10T00:46:32.713Z,23.97
2017-08-10T00:49:01.363Z,17.30
2017-08-10T00:51:29.749Z,16.17
2017-08-10T00:53:58.108Z,17.30
2017-08-10T00:56:27.744Z,17.03
2017-08-10T00:58:56.115Z,22.60
2017-08-10T01:01:24.456Z,23.23
2017-08-10T01:03:53.148Z,18.33
2017-08-10T01:06:21.502Z,20.33
2017-08-10T01:08:49.876Z,27.87
2017-08-10T01:11:18.508Z,17.87
2017-08-10T01:13:46.862Z,17.13
2017-08-10T01:16:15.220Z,17.37
2017-08-10T01:18:43.874Z,16.27
2017-08-10T01:21:12.222Z,16.30
2017-08-10T01:23:41.343Z,19.20
2017-08-10T01:26:10.337Z,22.67
2017-08-10T01:28:38.673Z,15.60
2017-08-10T01:31:07.025Z,15.90
2017-08-10T01:33:35.657Z,15.10
2017-08-10T01:36:04.787Z,29.27
2017-08-10T01:38:33.123Z,15.07
2017-08-10T01:41:01.869Z,15.40
2017-08-10T01:43:30.249Z,16.57
2017-08-10T01:45:58.600Z,18.97
2017-08-10T01:48:27.896Z,16.30
2017-08-10T01:50:56.248Z,18.10
2017-08-10T01:53:25.402Z,15.23
2017-08-10T01:55:54.161Z,21.73
2017-08-10T01:58:22.529Z,16.97
2017-08-10T02:00:50.895Z,15.17
2017-08-10T02:03:19.669Z,15.43
2017-08-10T02:05:48.009Z,20.30
2017-08-10T02:08:16.355Z,15.03
2017-08-10T02:10:45.155Z,16.63
2017-08-10T02:13:13.498Z,16.97
2017-08-10T02:15:41.874Z,17.17
2017-08-10T02:18:10.709Z,14.80
2017-08-10T02:20:39.074Z,15.23
2017-08-10T02:23:07.430Z,21.47
2017-08-10T02:25:36.071Z,21.10
2017-08-10T02:28:04.459Z,15.80
2017-08-10T02:30:32.821Z,19.53
2017-08-10T02:33:02.071Z,15.30
2017-08-10T02:35:30.432Z,15.53
2017-08-10T02:37:58.788Z,17.70
2017-08-10T02:40:27.454Z,15.03
2017-08-10T02:42:55.816Z,16.50
2017-08-10T02:45:24.165Z,13.87
2017-08-10T02:47:52.797Z,29.63
2017-08-10T02:50:21.146Z,14.50
2017-08-10T02:52:49.546Z,20.30
2017-08-10T02:55:18.543Z,20.33
2017-08-10T02:57:46.886Z,17.43
2017-08-10T03:00:15.263Z,15.00
2017-08-10T03:02:43.895Z,15.10
2017-08-10T03:05:12.251Z,23.27
2017-08-10T03:07:40.622Z,16.83
2017-08-10T03:10:09.427Z,15.13
2017-08-10T03:12:37.780Z,15.07
2017-08-10T03:15:06.121Z,29.03
2017-08-10T03:17:35.011Z,18.97
2017-08-10T03:20:03.370Z,18.00
2017-08-10T03:22:31.749Z,23.70
2017-08-10T03:25:00.543Z,23.40
2017-08-10T03:27:28.888Z,15.60
2017-08-10T03:29:57.266Z,20.83
2017-08-10T03:32:25.922Z,16.63
2017-08-10T03:34:54.261Z,21.67
2017-08-10T03:37:22.633Z,20.00
2017-08-10T03:39:51.363Z,17.50
2017-08-10T03:42:19.712Z,19.73
2017-08-10T03:44:48.082Z,14.80
2017-08-10T03:47:16.717Z,15.20
2017-08-10T03:49:45.087Z,15.23
2017-08-10T03:52:13.443Z,21.73
2017-08-10T03:54:42.317Z,15.37
2017-08-10T03:57:10.675Z,19.70
2017-08-10T03:59:39.028Z,23.00
2017-08-10T04:02:07.730Z,15.57
2017-08-10T04:04:36.089Z,23.17
2017-08-10T04:07:04.445Z,18.43
2017-08-10T04:09:33.103Z,20.30
2017-08-10T04:12:01.442Z,16.23
2017-08-10T04:14:29.798Z,22.20
2017-08-10T04:16:58.419Z,15.10
2017-08-10T04:19:26.769Z,18.47
2017-08-10T04:21:55.167Z,16.20
2017-08-10T04:24:23.886Z,19.20
2017-08-10T04:26:52.230Z,17.67
2017-08-10T04:29:20.578Z,17.87
2017-08-10T04:31:49.563Z,20.13
2017-08-10T04:34:17.947Z,14.37
2017-08-10T04:36:46.309Z,14.20
2017-08-10T04:39:14.998Z,14.57
2017-08-10T04:41:43.455Z,18.13
2017-08-10T04:44:11.857Z,15.50
2017-08-10T04:46:40.610Z,15.87
2017-08-10T04:49:08.978Z,21.67
2017-08-10T04:51:37.317Z,20.83
2017-08-10T04:54:06.095Z,15.30
2017-08-10T04:56:34.453Z,32.90
2017-08-10T04:59:02.803Z,19.87
2017-08-10T05:01:31.714Z,17.80
2017-08-10T05:04:00.068Z,15.60
2017-08-10T05:06:28.464Z,31.53
2017-08-10T05:08:57.782Z,25.20
2017-08-10T05:11:26.145Z,17.87
2017-08-10T05:13:54.488Z,22.53
2017-08-10T05:16:23.125Z,21.40
2017-08-10T05:18:51.481Z,17.00
2017-08-10T05:21:19.827Z,16.37
2017-08-10T05:23:48.471Z,15.20
2017-08-10T05:26:16.856Z,16.17
2017-08-10T05:28:45.235Z,25.50
2017-08-10T05:31:14.318Z,27.33
2017-08-10T05:33:42.673Z,19.83
2017-08-10T05:36:11.065Z,19.37
2017-08-10T05:38:39.702Z,23.27
2017-08-10T05:41:08.124Z,22.13
2017-08-10T05:43:36.481Z,18.23
2017-08-10T05:46:05.120Z,19.40
2017-08-10T05:48:33.466Z,21.20
2017-08-10T05:51:01.855Z,21.50
2017-08-10T05:53:31.406Z,19.73
2017-08-10T05:55:59.751Z,25.90
2017-08-10T05:58:28.122Z,22.40
2017-08-10T06:00:56.748Z,18.63
2017-08-10T06:03:25.087Z,16.63
2017-08-10T06:05:54.216Z,24.67
2017-08-10T06:08:22.983Z,18.17
2017-08-10T06:10:51.326Z,18.40
2017-08-10T06:13:19.678Z,20.70
2017-08-10T06:15:48.624Z,27.40
2017-08-10T06:18:16.977Z,20.37
2017-08-10T06:24:28.825Z,19.93
2017-08-10T06:27:01.153Z,22.70
2017-08-10T06:29:30.158Z,19.57
2017-08-10T06:32:00.995Z,21.60
2017-08-10T06:34:30.516Z,25.77
2017-08-10T06:36:58.879Z,22.83
2017-08-10T06:39:29.089Z,31.77
2017-08-10T06:41:57.462Z,32.93
2017-08-10T06:44:29.442Z,23.13
2017-08-10T06:46:58.168Z,24.80
2017-08-10T06:49:27.582Z,28.67
2017-08-10T06:51:55.937Z,26.60
2017-08-10T06:54:25.586Z,23.93
2017-08-10T06:56:56.073Z,25.23
2017-08-10T06:59:24.464Z,24.00
2017-08-10T07:01:53.186Z,36.03
2017-08-10T07:04:21.556Z,35.87
2017-08-10T07:06:49.931Z,33.47
2017-08-10T07:09:18.593Z,36.23
2017-08-10T07:11:47.707Z,32.37
2017-08-10T07:14:16.763Z,30.80
2017-08-10T07:16:45.851Z,31.80
2017-08-10T07:19:14.252Z,27.67
2017-08-10T07:21:42.903Z,31.83
2017-08-10T07:24:12.319Z,27.60
2017-08-10T07:26:40.904Z,37.30
2017-08-10T07:29:09.434Z,31.50
2017-08-10T07:31:38.343Z,25.67
2017-08-10T07:34:06.724Z,32.23
2017-08-10T07:36:35.924Z,34.80
2017-08-10T07:39:04.763Z,27.93
2017-08-10T07:41:33.537Z,36.00
2017-08-10T07:44:02.882Z,29.43
2017-08-10T07:46:32.413Z,24.40
2017-08-10T07:49:01.580Z,31.33
2017-08-10T07:51:30.542Z,36.43
2017-08-10T07:53:59.464Z,31.40
2017-08-10T07:56:27.890Z,41.23
2017-08-10T07:58:56.275Z,37.30
2017-08-10T08:01:25.031Z,35.40
2017-08-10T08:03:53.496Z,44.87
2017-08-10T08:06:21.838Z,41.27
2017-08-10T08:08:50.663Z,47.53
2017-08-10T08:11:19.248Z,27.60
2017-08-10T08:13:47.598Z,40.23
2017-08-10T08:16:16.844Z,40.47
2017-08-10T08:18:45.943Z,37.77
2017-08-10T08:21:15.017Z,39.00
2017-08-10T08:23:44.923Z,31.67
2017-08-10T08:26:13.303Z,34.57
2017-08-10T08:28:41.673Z,34.10
2017-08-10T08:31:11.322Z,42.90
2017-08-10T08:33:39.694Z,45.43
2017-08-10T08:36:08.061Z,32.60
2017-08-10T08:38:36.670Z,32.60
2017-08-10T08:41:05.038Z,33.20
2017-08-10T08:43:33.394Z,27.93
2017-08-10T08:46:02.393Z,33.50
2017-08-10T08:48:30.768Z,32.10
2017-08-10T08:50:59.120Z,30.60
2017-08-10T08:53:27.861Z,28.17
2017-08-10T08:55:56.238Z,28.40
2017-08-10T08:58:24.616Z,26.20
2017-08-10T09:00:53.308Z,35.33
2017-08-10T09:03:21.674Z,30.57
2017-08-10T09:05:50.027Z,26.10
2017-08-10T09:08:18.968Z,28.47
2017-08-10T09:10:47.349Z,32.10
2017-08-10T09:13:15.707Z,28.67
2017-08-10T09:15:44.497Z,35.70
2017-08-10T09:18:12.830Z,38.73
2017-08-10T09:20:41.226Z,27.37
2017-08-10T09:23:10.045Z,27.87
2017-08-10T09:25:38.387Z,30.60
2017-08-10T09:28:06.788Z,32.23
2017-08-10T09:30:35.635Z,25.53
2017-08-10T09:33:04.025Z,21.60
2017-08-10T09:35:32.421Z,30.10
2017-08-10T09:38:01.380Z,18.40
2017-08-10T09:40:29.734Z,19.10
2017-08-10T09:42:58.118Z,30.07
2017-08-10T09:45:26.987Z,23.17
2017-08-10T09:47:55.384Z,25.33
2017-08-10T09:50:23.728Z,18.93
2017-08-10T09:52:52.487Z,21.23
2017-08-10T09:55:20.853Z,15.63
2017-08-10T09:57:49.209Z,19.33
2017-08-10T10:00:18.070Z,17.13
2017-08-10T10:02:46.460Z,20.00
2017-08-10T10:05:14.822Z,16.00
2017-08-10T10:07:43.474Z,21.37
2017-08-10T10:10:18.549Z,18.10
2017-08-10T10:12:47.876Z,14.73
2017-08-10T10:15:16.319Z,12.13
2017-08-10T10:17:44.770Z,17.60
2017-08-10T10:20:13.707Z,11.13
2017-08-10T10:22:42.070Z,16.73
2017-08-10T10:25:11.194Z,17.20
2017-08-10T10:27:39.967Z,12.60
2017-08-10T10:30:08.324Z,11.80
2017-08-10T10:32:37.849Z,10.37
2017-08-10T10:35:06.859Z,16.03
2017-08-10T10:37:35.223Z,14.97
2017-08-10T10:40:03.582Z,19.17
2017-08-10T10:42:32.291Z,10.63
2017-08-10T10:45:00.649Z,8.57
2017-08-10T10:47:28.991Z,8.97
2017-08-10T10:49:57.670Z,12.77
2017-08-10T10:52:26.062Z,30.17
2017-08-10T10:54:54.412Z,9.80
2017-08-10T10:57:23.247Z,26.33
2017-08-10T10:59:51.586Z,11.37
2017-08-10T11:02:19.969Z,12.77
2017-08-10T11:04:48.685Z,18.97
2017-08-10T11:07:17.099Z,15.20
2017-08-10T11:09:45.442Z,10.67
2017-08-10T11:12:14.302Z,12.97
2017-08-10T11:14:42.714Z,10.67
2017-08-10T11:17:11.081Z,14.23
2017-08-10T11:19:39.955Z,11.23
2017-08-10T11:22:08.446Z,9.50
2017-08-10T11:24:36.867Z,10.50
2017-08-10T11:27:05.564Z,8.57
2017-08-10T11:29:33.942Z,10.00
2017-08-10T11:32:02.358Z,9.47
2017-08-10T11:34:31.457Z,12.10
2017-08-10T11:36:59.833Z,9.53
2017-08-10T11:39:28.198Z,7.47
2017-08-10T11:41:57.160Z,16.27
2017-08-10T11:44:26.331Z,12.90
2017-08-10T11:46:54.771Z,16.87
2017-08-10T11:49:23.551Z,11.23
2017-08-10T11:51:51.923Z,12.63
2017-08-10T11:54:20.281Z,20.83
2017-08-10T11:56:49.009Z,12.00
2017-08-10T11:59:17.406Z,7.57
2017-08-10T12:01:45.751Z,7.50
2017-08-10T12:04:15.234Z,8.60
2017-08-10T12:06:43.606Z,10.90
2017-08-10T12:09:11.951Z,22.20
2017-08-10T12:11:40.621Z,12.37
2017-08-10T12:14:09.026Z,7.63
2017-08-10T12:16:37.401Z,9.67
2017-08-10T12:19:06.068Z,5.50
2017-08-10T12:21:34.444Z,7.40
2017-08-10T12:24:02.812Z,15.23
2017-08-10T12:26:31.615Z,10.57
2017-08-10T12:28:59.949Z,15.93
2017-08-10T12:31:29.103Z,12.50
2017-08-10T12:33:57.769Z,6.70
2017-08-10T12:36:26.382Z,7.80
2017-08-10T12:38:54.727Z,5.40
2017-08-10T12:41:23.356Z,5.17
2017-08-10T12:43:51.781Z,5.53
2017-08-10T12:46:20.147Z,4.67
2017-08-10T12:48:48.995Z,5.23
2017-08-10T12:51:17.333Z,10.47
2017-08-10T12:53:45.683Z,9.77
2017-08-10T12:56:14.557Z,7.70
2017-08-10T12:58:42.971Z,8.20
2017-08-10T13:01:11.306Z,6.13
2017-08-10T13:03:40.004Z,7.13
2017-08-10T13:06:08.341Z,10.03
2017-08-10T13:08:36.701Z,12.10
2017-08-10T13:11:05.441Z,8.70
2017-08-10T13:13:33.934Z,5.90
2017-08-10T13:16:02.341Z,11.30
2017-08-10T13:18:31.802Z,7.30
2017-08-10T13:21:00.171Z,13.50
2017-08-10T13:23:28.520Z,7.10
2017-08-10T13:25:57.221Z,8.30
2017-08-10T13:28:25.574Z,5.33
2017-08-10T13:30:53.943Z,14.53
2017-08-10T13:33:22.740Z,7.37
2017-08-10T13:35:51.857Z,4.93
2017-08-10T13:38:20.193Z,5.00
2017-08-10T13:40:49.197Z,4.80
2017-08-10T13:43:17.576Z,8.13
2017-08-10T13:45:45.939Z,5.93
2017-08-10T13:48:14.596Z,7.00
2017-08-10T13:50:42.961Z,8.33
2017-08-10T13:53:11.326Z,5.20
2017-08-10T13:55:40.246Z,5.23
2017-08-10T13:58:08.619Z,6.93
2017-08-10T14:00:37.002Z,5.33
2017-08-10T14:03:05.749Z,7.30
2017-08-10T14:05:34.103Z,8.03
2017-08-10T14:08:02.492Z,6.30
2017-08-10T14:10:31.156Z,4.17
2017-08-10T14:12:59.513Z,6.20
2017-08-10T14:15:27.863Z,4.00
2017-08-10T14:17:57.190Z,5.27
2017-08-10T14:20:25.598Z,4.50
2017-08-10T14:22:53.973Z,4.73
2017-08-10T14:25:22.629Z,9.10
2017-08-10T14:27:50.988Z,8.23
2017-08-10T14:30:19.363Z,4.73
2017-08-10T14:32:48.020Z,9.07
2017-08-10T14:35:17.581Z,5.20
2017-08-10T14:37:46.527Z,4.70
2017-08-10T14:40:15.314Z,7.27
2017-08-10T14:42:43.675Z,8.47
2017-08-10T14:45:12.052Z,4.73
2017-08-10T14:47:40.805Z,4.93
2017-08-10T14:50:09.166Z,4.73
2017-08-10T14:52:37.730Z,5.23
2017-08-10T14:55:06.456Z,6.87
2017-08-10T14:57:34.825Z,5.77
2017-08-10T15:00:03.198Z,7.23
2017-08-10T15:02:31.993Z,6.33
2017-08-10T15:05:00.346Z,5.00
2017-08-10T15:07:28.718Z,6.47
2017-08-10T15:09:58.392Z,11.63
2017-08-10T15:12:26.734Z,5.60
2017-08-10T15:14:55.123Z,5.07
2017-08-10T15:17:23.903Z,11.40
2017-08-10T15:19:52.298Z,9.67
2017-08-10T15:22:20.806Z,31.17
2017-08-10T15:24:49.489Z,6.03
2017-08-10T15:27:17.905Z,17.47
2017-08-10T15:29:46.282Z,11.87
2017-08-10T15:32:15.872Z,7.17
2017-08-10T15:34:44.225Z,7.33
2017-08-10T15:37:12.606Z,5.23
2017-08-10T15:39:41.379Z,5.60
2017-08-10T15:42:09.769Z,12.03
2017-08-10T15:44:38.187Z,6.77
2017-08-10T15:47:06.978Z,10.60
2017-08-10T15:49:35.357Z,17.83
2017-08-10T15:52:03.731Z,7.20
2017-08-10T15:54:32.674Z,13.87
2017-08-10T15:57:01.031Z,9.03
2017-08-10T15:59:30.169Z,6.20
2017-08-10T16:01:58.934Z,7.10
2017-08-10T16:04:27.311Z,6.23
2017-08-10T16:06:55.666Z,8.63
2017-08-10T16:09:24.589Z,9.67
2017-08-10T16:11:52.981Z,11.20
2017-08-10T16:14:21.359Z,8.33
2017-08-10T16:16:50.233Z,15.73
2017-08-10T16:19:18.588Z,11.80
2017-08-10T16:21:47.721Z,5.83
2017-08-10T16:24:16.499Z,7.90
2017-08-10T16:26:44.864Z,14.47
2017-08-10T16:29:13.217Z,9.03
2017-08-10T16:31:42.350Z,13.67
2017-08-10T16:34:10.715Z,11.67
2017-08-10T16:36:39.843Z,7.00
2017-08-10T16:39:08.520Z,12.80
2017-08-10T16:41:36.921Z,10.93
2017-08-10T16:44:05.301Z,8.30
2017-08-10T16:46:34.297Z,25.63
2017-08-10T16:49:02.642Z,11.03
2017-08-10T16:51:31.016Z,14.87
2017-08-10T16:53:59.727Z,9.23
2017-08-10T16:56:28.121Z,7.73
2017-08-10T16:58:56.463Z,13.83
2017-08-10T17:01:25.346Z,15.20
2017-08-10T17:03:53.743Z,6.97
2017-08-10T17:06:22.138Z,16.13
2017-08-10T17:08:51.045Z,7.60
2017-08-10T17:11:19.412Z,12.03
2017-08-10T17:13:47.762Z,16.00
2017-08-10T17:16:16.600Z,17.40
2017-08-10T17:18:44.949Z,7.60
2017-08-10T17:21:13.311Z,9.33
2017-08-10T17:23:42.106Z,5.40
2017-08-10T17:26:10.481Z,11.93
2017-08-10T17:28:38.851Z,10.03
2017-08-10T17:31:07.529Z,8.33
2017-08-10T17:33:35.899Z,5.90
2017-08-10T17:36:05.018Z,11.43
2017-08-10T17:38:34.002Z,11.00
2017-08-10T17:41:02.373Z,14.30
2017-08-10T17:43:30.739Z,23.50
2017-08-10T17:45:59.417Z,22.90
2017-08-10T17:48:27.784Z,11.60
2017-08-10T17:50:56.160Z,8.50
2017-08-10T17:53:24.920Z,9.40
2017-08-10T17:55:53.325Z,9.70
2017-08-10T17:58:21.692Z,13.43
2017-08-10T18:00:51.498Z,11.90
2017-08-10T18:03:19.879Z,23.47
2017-08-10T18:05:48.243Z,11.20
2017-08-10T18:08:16.904Z,10.90
2017-08-10T18:10:46.035Z,15.53
2017-08-10T18:13:14.405Z,4.33
2017-08-10T18:15:43.060Z,7.00
2017-08-10T18:18:11.415Z,5.63
2017-08-10T18:20:39.792Z,14.20
2017-08-10T18:23:08.582Z,7.37
2017-08-10T18:25:36.923Z,7.80
2017-08-10T18:28:05.269Z,7.90
2017-08-10T18:30:34.200Z,21.90
2017-08-10T18:33:02.559Z,11.47
2017-08-10T18:35:30.964Z,14.70
2017-08-10T18:37:59.606Z,9.67
2017-08-10T18:40:27.956Z,16.10
2017-08-10T18:42:56.336Z,13.10
2017-08-10T18:45:25.294Z,12.93
2017-08-10T18:47:53.635Z,17.43
2017-08-10T18:50:22.765Z,11.23
2017-08-10T18:52:51.416Z,9.40
2017-08-10T18:55:20.506Z,11.10
2017-08-10T18:57:49.610Z,8.47
2017-08-10T19:00:19.250Z,21.60
2017-08-10T19:02:47.602Z,10.73
2017-08-10T19:05:15.971Z,22.43
2017-08-10T19:07:45.119Z,19.97
2017-08-10T19:10:13.533Z,15.20
2017-08-10T19:12:41.905Z,22.73
2017-08-10T19:15:10.766Z,13.17
2017-08-10T19:17:39.129Z,22.10
2017-08-10T19:20:07.470Z,8.03
2017-08-10T19:22:36.132Z,10.73
2017-08-10T19:25:04.495Z,16.67
2017-08-10T19:27:32.859Z,11.27
2017-08-10T19:30:01.874Z,18.30
2017-08-10T19:32:30.223Z,10.37
2017-08-10T19:34:58.575Z,9.60
2017-08-10T19:37:27.432Z,11.80
2017-08-10T19:39:55.790Z,15.30
2017-08-10T19:42:24.140Z,12.87
2017-08-10T19:44:52.757Z,9.97
2017-08-10T19:47:21.127Z,7.23
2017-08-10T19:49:49.478Z,14.07
2017-08-10T19:52:18.395Z,6.53
2017-08-10T19:54:46.782Z,12.73
2017-08-10T19:57:15.138Z,17.47
2017-08-10T19:59:43.836Z,11.00
2017-08-10T20:02:12.209Z,8.30
2017-08-10T20:04:40.588Z,7.70
2017-08-10T20:07:09.472Z,25.53
2017-08-10T20:09:37.838Z,9.90
2017-08-10T20:12:06.977Z,16.50
2017-08-10T20:14:35.764Z,13.20
2017-08-10T20:17:04.153Z,25.27
2017-08-10T20:19:32.533Z,19.40
2017-08-10T20:22:01.399Z,22.03
2017-08-10T20:24:29.788Z,24.93
2017-08-10T20:26:58.157Z,21.77
2017-08-10T20:29:26.840Z,16.17
2017-08-10T20:31:55.174Z,11.87
2017-08-10T20:34:23.545Z,16.93
2017-08-10T20:36:52.519Z,20.87
2017-08-10T20:39:20.858Z,15.43
2017-08-10T20:41:49.212Z,14.87
2017-08-10T20:44:17.837Z,15.50
2017-08-10T20:46:46.262Z,21.90
2017-08-10T20:49:14.685Z,16.77
2017-08-10T20:51:43.581Z,17.30
2017-08-10T20:54:11.974Z,17.80
2017-08-10T20:56:40.372Z,17.70
2017-08-10T20:59:09.156Z,20.23
2017-08-10T21:01:37.588Z,13.43
2017-08-10T21:04:06.726Z,14.80
2017-08-10T21:06:35.500Z,16.03
2017-08-10T21:09:08.127Z,15.00
2017-08-10T21:11:36.757Z,15.90
2017-08-10T21:14:05.136Z,24.97
2017-08-10T21:16:33.499Z,25.57
2017-08-10T21:19:02.194Z,14.30
2017-08-10T21:21:30.555Z,21.13
2017-08-10T21:23:59.699Z,13.63
2017-08-10T21:26:28.400Z,11.70
2017-08-10T21:28:56.775Z,13.87
2017-08-10T21:31:25.114Z,15.43
2017-08-10T21:33:54.542Z,28.43
2017-08-10T21:36:22.942Z,23.67
2017-08-10T21:38:51.383Z,16.70
2017-08-10T21:41:20.135Z,22.53
2017-08-10T21:43:48.507Z,18.13
2017-08-10T21:46:16.860Z,28.10
2017-08-10T21:48:45.593Z,9.33
2017-08-10T21:51:13.970Z,8.80
2017-08-10T21:53:42.332Z,16.93
2017-08-10T21:56:11.080Z,19.67
2017-08-10T21:58:39.463Z,16.13
2017-08-10T22:01:07.837Z,14.63
2017-08-10T22:03:36.552Z,10.10
2017-08-10T22:06:04.899Z,30.97
2017-08-10T22:08:33.270Z,11.63
2017-08-10T22:11:01.955Z,17.03
2017-08-10T22:13:30.367Z,23.33
2017-08-10T22:15:58.719Z,14.67
2017-08-10T22:18:27.610Z,18.87
2017-08-10T22:20:55.980Z,20.20
2017-08-10T22:23:24.336Z,17.33
2017-08-10T22:25:53.132Z,14.97
2017-08-10T22:28:22.249Z,7.93
2017-08-10T22:30:50.608Z,10.33
2017-08-10T22:33:19.549Z,18.23
2017-08-10T22:35:47.918Z,18.07
2017-08-10T22:38:16.287Z,14.97
2017-08-10T22:40:44.906Z,11.93
2017-08-10T22:43:13.287Z,20.13
2017-08-10T22:45:41.646Z,13.63
2017-08-10T22:48:10.436Z,17.93
2017-08-10T22:50:38.762Z,17.13
2017-08-10T22:53:07.115Z,10.70
2017-08-10T22:55:35.821Z,16.97
2017-08-10T22:58:04.227Z,9.50
2017-08-10T23:00:33.337Z,11.10
2017-08-10T23:03:01.980Z,12.33
2017-08-10T23:05:30.344Z,15.80
2017-08-10T23:07:58.779Z,11.53
2017-08-10T23:10:27.544Z,10.27
2017-08-10T23:12:55.987Z,12.73
2017-08-10T23:15:24.326Z,17.97
2017-08-10T23:17:52.981Z,11.00
2017-08-10T23:20:21.326Z,8.97
2017-08-10T23:22:49.671Z,15.67
2017-08-10T23:25:18.453Z,15.40
2017-08-10T23:27:46.808Z,20.13
2017-08-10T23:30:15.938Z,19.33
2017-08-10T23:32:44.615Z,9.50
2017-08-10T23:35:12.985Z,23.63
2017-08-10T23:37:41.366Z,13.40
2017-08-10T23:40:10.125Z,15.20
2017-08-10T23:42:38.469Z,19.33
2017-08-10T23:45:06.860Z,14.77
2017-08-10T23:47:35.620Z,7.40
2017-08-10T23:50:03.964Z,27.40
2017-08-10T23:52:32.321Z,18.40
2017-08-10T23:55:01.108Z,12.20
2017-08-10T23:57:29.465Z,10.87
2017-08-10T23:59:57.807Z,13.37
